Time;durP1;ratioP1;P1;durP2;ratioP2;P2;SDS_P1;SDS_P2;PMS_P1;PMS_P2;Temp;Humidity;BMP_temperature;BMP_pressure;BME280_temperature;BME280_humidity;BME280_pressure;Samples;Min_cycle;Max_cycle;Signal;HPM_P1;HPM_P2
2022/01/03 00:03:17;;;;;;;1.23;0.30;;;;;;;10.33;85.41;99918.69;10446284;28;20182;-60
2022/01/03 00:08:21;;;;;;;1.75;0.30;;;;;;;10.37;85.66;99943.22;10443338;28;20162;-60
2022/01/03 00:13:23;;;;;;;1.10;0.40;;;;;;;10.41;86.85;99928.69;10440622;28;20128;-63
2022/01/03 00:18:24;;;;;;;2.60;1.00;;;;;;;10.47;88.46;99943.28;10454989;28;20051;-61
2022/01/03 00:23:28;;;;;;;2.95;1.27;;;;;;;10.46;89.75;99958.41;10449652;28;20436;-62
2022/01/03 00:28:34;;;;;;;3.40;1.13;;;;;;;10.46;91.45;99947.75;10446449;28;20068;-61
2022/01/03 00:33:37;;;;;;;3.78;1.20;;;;;;;10.52;92.14;99949.06;10442535;28;20417;-62
2022/01/03 00:38:38;;;;;;;6.00;1.20;;;;;;;10.54;92.04;99947.97;10448889;28;20654;-60
2022/01/03 00:43:40;;;;;;;3.63;1.30;;;;;;;10.77;91.38;99963.78;10442815;28;20151;-61
2022/01/03 00:48:43;;;;;;;4.10;1.65;;;;;;;10.82;90.80;99953.56;10441419;28;20515;-61
2022/01/03 00:53:44;;;;;;;3.20;1.92;;;;;;;10.81;89.53;99965.22;10452354;28;20525;-61
2022/01/03 00:58:52;;;;;;;4.95;1.63;;;;;;;10.63;88.65;99964.97;10445214;28;20156;-61
2022/01/03 01:03:56;;;;;;;3.28;1.20;;;;;;;10.77;88.13;99969.09;10447791;28;20538;-61
2022/01/03 01:08:57;;;;;;;4.53;1.30;;;;;;;10.69;88.99;99960.91;10445557;28;20045;-61
2022/01/03 01:14:00;;;;;;;4.43;1.42;;;;;;;10.72;89.40;99958.84;10447440;28;20052;-61
2022/01/03 01:19:03;;;;;;;4.70;1.58;;;;;;;10.74;89.65;99972.03;10449263;28;20079;-60
2022/01/03 01:24:04;;;;;;;5.03;2.13;;;;;;;10.81;88.52;99977.66;10460307;22;20104;-65
2022/01/03 01:29:07;;;;;;;4.10;1.10;;;;;;;10.70;87.61;99973.25;10462871;28;20124;-65
2022/01/03 01:34:12;;;;;;;2.83;1.40;;;;;;;10.65;85.97;99986.97;10454030;28;20421;-67
2022/01/03 01:39:16;;;;;;;3.65;1.40;;;;;;;10.71;83.36;99983.78;10432133;28;20045;-64
2022/01/03 01:44:18;;;;;;;3.10;1.05;;;;;;;10.64;81.14;99998.56;10440732;28;20044;-65
2022/01/03 01:49:22;;;;;;;2.83;0.80;;;;;;;10.65;82.04;100018.06;10430613;28;20056;-68
2022/01/03 01:54:31;;;;;;;2.08;0.50;;;;;;;10.65;81.17;100016.25;10435995;28;20174;-66
2022/01/03 02:00:12;;;;;;;4.15;0.90;;;;;;;10.70;81.38;100021.16;10433787;28;20055;-66
2022/01/03 02:05:29;;;;;;;3.47;0.70;;;;;;;10.58;81.95;100002.63;10434035;28;20071;-67
2022/01/03 02:10:41;;;;;;;4.65;1.00;;;;;;;10.52;82.22;99995.13;10437000;28;22285;-65
2022/01/03 02:15:46;;;;;;;2.45;0.80;;;;;;;10.44;82.01;100009.09;10424905;28;20060;-66
2022/01/03 02:20:47;;;;;;;2.58;0.90;;;;;;;10.33;82.47;100006.50;10434345;28;20059;-67
2022/01/03 02:25:49;;;;;;;2.88;0.82;;;;;;;10.30;81.34;100013.84;10424944;28;20665;-65
2022/01/03 02:30:51;;;;;;;3.00;0.88;;;;;;;10.25;80.62;100015.09;10420092;28;20056;-66
2022/01/03 02:35:53;;;;;;;4.68;0.90;;;;;;;10.14;79.59;100006.31;10434835;28;20048;-65
2022/01/03 02:40:54;;;;;;;5.38;1.02;;;;;;;10.13;78.91;100000.13;10435687;28;20057;-66
2022/01/03 02:45:56;;;;;;;6.75;1.50;;;;;;;10.12;78.40;99986.94;10426940;28;20053;-65
2022/01/03 02:50:57;;;;;;;4.85;0.98;;;;;;;10.12;78.56;99998.44;10437763;28;20064;-65
2022/01/03 02:56:00;;;;;;;3.58;1.35;;;;;;;10.02;78.29;99992.19;10426224;28;20053;-66
2022/01/03 03:01:03;;;;;;;4.13;0.88;;;;;;;10.01;78.45;99987.84;10436466;28;20044;-66
2022/01/03 03:06:04;;;;;;;2.72;0.77;;;;;;;10.01;77.84;100001.13;10429300;28;20132;-66
2022/01/03 03:11:06;;;;;;;4.47;0.85;;;;;;;9.85;77.92;100002.41;10428706;28;20175;-66
2022/01/03 03:16:07;;;;;;;4.15;1.52;;;;;;;9.92;77.56;100013.38;10428956;28;20051;-66
2022/01/03 03:21:09;;;;;;;4.30;1.02;;;;;;;9.86;76.42;100009.41;10434325;28;20044;-66
2022/01/03 03:26:11;;;;;;;4.10;1.15;;;;;;;9.94;76.63;100021.22;10426662;28;20411;-66
2022/01/03 03:31:12;;;;;;;5.53;1.75;;;;;;;9.94;75.81;100021.22;10425382;28;20052;-66
2022/01/03 03:36:14;;;;;;;3.60;1.17;;;;;;;9.80;76.09;100017.88;10438177;28;20056;-67
2022/01/03 03:41:15;;;;;;;1.85;0.65;;;;;;;9.84;75.65;100029.09;10436115;28;20072;-67
2022/01/03 03:46:17;;;;;;;4.75;1.48;;;;;;;9.81;76.19;100032.84;10434380;28;20112;-70
2022/01/03 03:51:18;;;;;;;4.38;1.45;;;;;;;9.84;75.79;100024.63;10439561;28;20052;-66
2022/01/03 03:56:20;;;;;;;15.25;2.25;;;;;;;9.98;75.87;100038.63;10437964;28;20136;-66
2022/01/03 04:01:21;;;;;;;8.55;1.27;;;;;;;10.02;74.99;100026.78;10434292;28;20144;-66
2022/01/03 04:06:23;;;;;;;4.50;0.95;;;;;;;10.11;75.37;100039.31;10446131;28;20055;-67
2022/01/03 04:11:24;;;;;;;3.40;0.95;;;;;;;10.12;75.75;100043.66;10435455;28;20045;-65
2022/01/03 04:16:26;;;;;;;6.03;1.23;;;;;;;10.13;76.10;100034.69;10437018;28;20132;-64
2022/01/03 04:21:27;;;;;;;7.03;1.42;;;;;;;10.05;76.66;100031.84;10433573;28;20049;-65
2022/01/03 04:26:29;;;;;;;4.07;1.17;;;;;;;9.93;77.60;100028.34;10435457;28;20049;-66
2022/01/03 04:31:30;;;;;;;5.32;0.85;;;;;;;9.80;78.10;100031.16;10436650;28;20044;-65
2022/01/03 04:36:32;;;;;;;2.50;0.70;;;;;;;9.78;78.43;100043.72;10448205;28;20518;-67
2022/01/03 04:41:34;;;;;;;4.95;0.63;;;;;;;9.77;78.32;100039.38;10437531;28;20063;-65
2022/01/03 04:46:37;;;;;;;3.28;0.77;;;;;;;9.71;78.29;100048.72;10430996;28;20047;-66
2022/01/03 04:51:39;;;;;;;2.42;0.60;;;;;;;9.68;78.12;100038.34;10439202;28;20055;-66
2022/01/03 04:56:41;;;;;;;3.58;1.13;;;;;;;9.72;77.76;100046.88;10427884;28;20133;-67
2022/01/03 05:01:42;;;;;;;3.40;0.63;;;;;;;9.66;76.50;100034.09;10431988;28;20135;-65
2022/01/03 05:06:44;;;;;;;2.13;0.63;;;;;;;9.66;76.48;100042.06;10440872;28;20127;-66
2022/01/03 05:11:45;;;;;;;2.92;0.63;;;;;;;9.67;75.74;100036.63;10435383;28;20045;-65
2022/01/03 05:16:46;;;;;;;7.75;1.08;;;;;;;9.70;75.59;100035.56;10434098;28;20712;-66
2022/01/03 05:21:48;;;;;;;2.28;0.22;;;;;;;9.69;75.38;100045.31;10433963;28;20053;-66
2022/01/03 05:26:53;;;;;;;5.13;1.13;;;;;;;9.63;75.43;100037.00;10445586;28;20048;-67
2022/01/03 05:31:55;;;;;;;3.20;0.30;;;;;;;9.64;75.55;100041.34;10431278;28;20063;-65
2022/01/03 05:36:56;;;;;;;1.63;0.30;;;;;;;9.64;76.01;100046.69;10440232;28;20053;-66
2022/01/03 05:41:58;;;;;;;0.95;0.38;;;;;;;9.62;76.46;100048.59;10450319;28;20127;-65
2022/01/03 05:46:59;;;;;;;2.45;0.47;;;;;;;9.65;75.65;100056.31;10430310;28;20708;-67
2022/01/03 05:52:00;;;;;;;2.22;0.30;;;;;;;9.56;75.66;100052.56;10430942;28;20277;-65
2022/01/03 05:57:02;;;;;;;4.15;0.80;;;;;;;9.59;75.59;100048.84;10410098;28;20468;-66
2022/01/03 06:02:04;;;;;;;1.80;0.60;;;;;;;9.60;75.06;100050.53;10410520;28;20579;-66
2022/01/03 06:07:08;;;;;;;3.35;0.57;;;;;;;9.65;75.14;100054.53;10413523;28;20049;-66
2022/01/03 06:12:09;;;;;;;5.45;1.25;;;;;;;9.63;75.93;100055.59;10409112;28;20530;-66
2022/01/03 06:17:11;;;;;;;4.60;0.70;;;;;;;9.60;76.51;100063.81;10409135;28;20136;-66
2022/01/03 06:22:17;;;;;;;2.95;0.45;;;;;;;9.59;77.04;100059.47;10402540;28;20423;-66
2022/01/03 06:27:18;;;;;;;4.57;0.88;;;;;;;9.60;77.55;100056.69;10409633;28;20053;-66
2022/01/03 06:32:19;;;;;;;3.08;0.70;;;;;;;9.61;78.33;100057.53;10409229;28;20049;-66
2022/01/03 06:37:21;;;;;;;3.85;0.77;;;;;;;9.59;78.72;100043.53;10406311;28;20072;-66
2022/01/03 06:42:23;;;;;;;2.80;0.77;;;;;;;9.48;79.25;100055.84;10411435;28;20072;-66
2022/01/03 06:47:25;;;;;;;3.00;0.77;;;;;;;9.39;79.99;100048.59;10410191;28;20064;-66
2022/01/03 06:52:26;;;;;;;2.78;0.85;;;;;;;9.32;80.63;100050.03;10413542;28;20520;-64
2022/01/03 06:57:28;;;;;;;2.85;1.00;;;;;;;9.42;80.45;100061.66;10411598;28;20469;-65
2022/01/03 07:02:29;;;;;;;3.25;0.70;;;;;;;9.38;80.74;100068.16;10409871;28;20742;-65
2022/01/03 07:07:31;;;;;;;5.38;0.82;;;;;;;9.45;80.47;100063.22;10409034;28;20570;-63
2022/01/03 07:12:33;;;;;;;4.10;0.80;;;;;;;9.49;80.36;100060.19;10407088;28;20059;-64
2022/01/03 07:22:55;;;;;;;2.63;0.50;;;;;;;9.83;79.47;100052.19;10407090;28;20052;-64
2022/01/03 07:27:56;;;;;;;5.32;1.00;;;;;;;9.65;79.11;100053.66;10407472;28;20063;-64
2022/01/03 07:32:59;;;;;;;3.55;1.30;;;;;;;9.58;79.55;100058.63;10391233;28;20052;-62
2022/01/03 07:38:02;;;;;;;4.38;0.55;;;;;;;9.46;80.36;100054.28;10405073;28;20061;-63
2022/01/03 07:43:04;;;;;;;2.67;0.77;;;;;;;9.50;80.69;100053.94;10407999;28;20067;-63
2022/01/03 07:48:05;;;;;;;3.63;0.60;;;;;;;9.49;81.19;100054.88;10408429;28;20081;-64
2022/01/03 07:53:07;;;;;;;3.63;1.15;;;;;;;9.46;81.04;100055.13;10403935;28;20059;-64
2022/01/03 07:58:09;;;;;;;2.50;1.13;;;;;;;9.50;81.04;100056.59;10406341;28;20041;-63
2022/01/03 08:03:10;;;;;;;5.90;1.20;;;;;;;9.60;81.42;100071.78;10406516;28;20083;-64
2022/01/03 08:08:12;;;;;;;5.15;0.82;;;;;;;9.59;81.07;100059.47;10407176;28;20053;-64
2022/01/03 08:13:14;;;;;;;5.40;1.63;;;;;;;9.59;81.22;100039.03;10401946;28;20059;-65
2022/01/03 08:18:16;;;;;;;4.35;1.40;;;;;;;9.71;80.79;100037.22;10407484;28;20056;-65
2022/01/03 08:23:17;;;;;;;4.55;1.15;;;;;;;9.91;80.31;100043.59;10407608;28;20084;-65
2022/01/03 08:28:18;;;;;;;6.55;2.10;;;;;;;9.90;80.20;100057.84;10412465;28;20048;-65
2022/01/03 08:33:20;;;;;;;5.45;1.45;;;;;;;9.99;79.95;100050.94;10415956;28;20048;-65
2022/01/03 08:38:21;;;;;;;6.68;1.67;;;;;;;10.02;80.09;100040.06;10415480;28;20529;-65
2022/01/03 08:43:23;;;;;;;5.28;1.23;;;;;;;10.00;80.38;100052.66;10416860;28;20047;-65
2022/01/03 08:48:25;;;;;;;6.57;1.90;;;;;;;10.17;79.57;100044.13;10410792;28;20446;-64
2022/01/03 08:53:27;;;;;;;6.65;1.38;;;;;;;10.24;79.01;100041.81;10409686;28;20049;-64
2022/01/03 08:58:28;;;;;;;5.70;1.30;;;;;;;10.23;78.21;100037.47;10414794;28;20446;-64
2022/01/03 09:03:30;;;;;;;7.15;3.03;;;;;;;10.31;77.77;100024.34;10410170;28;20060;-65
2022/01/03 09:08:32;;;;;;;6.03;2.08;;;;;;;10.35;77.14;100019.66;10406468;28;20056;-65
2022/01/03 09:13:34;;;;;;;9.07;2.35;;;;;;;10.48;76.66;100023.00;10409016;28;20550;-64
2022/01/03 09:18:38;;;;;;;7.65;1.73;;;;;;;10.54;76.55;100019.81;10414325;28;20118;-64
2022/01/03 09:23:44;;;;;;;7.18;2.08;;;;;;;10.56;75.74;100017.03;10409886;28;21649;-65
2022/01/03 09:28:48;;;;;;;6.88;2.50;;;;;;;10.55;76.16;100020.66;10410523;28;20073;-65
2022/01/03 09:33:52;;;;;;;5.07;1.55;;;;;;;10.73;75.63;100029.75;10411426;28;20049;-65
2022/01/03 09:38:53;;;;;;;8.77;1.88;;;;;;;10.82;75.08;100030.78;10398455;28;20058;-65
2022/01/03 09:44:02;;;;;;;15.35;2.92;;;;;;;10.88;74.45;100027.59;10412135;28;20057;-65
2022/01/03 09:49:07;;;;;;;8.57;2.30;;;;;;;10.88;74.36;100038.25;10410740;28;20072;-65
2022/01/03 09:54:11;;;;;;;5.07;1.50;;;;;;;10.86;74.45;100031.38;10410161;28;20048;-63
2022/01/03 09:59:13;;;;;;;8.83;2.03;;;;;;;11.10;73.76;100020.44;10407189;28;20049;-65
2022/01/03 10:04:14;;;;;;;5.85;1.70;;;;;;;11.18;72.96;100028.59;10406671;28;20705;-63
2022/01/03 10:09:18;;;;;;;10.77;1.88;;;;;;;11.17;73.48;100008.28;10407444;28;20060;-64
2022/01/03 10:14:20;;;;;;;4.77;1.50;;;;;;;10.94;74.18;100011.09;10408770;28;20745;-62
2022/01/03 10:19:22;;;;;;;7.72;2.15;;;;;;;10.90;75.22;100003.50;10409813;28;20054;-63
2022/01/03 10:24:33;;;;;;;11.68;2.05;;;;;;;10.79;76.65;100013.25;10410194;28;20753;-64
2022/01/03 10:29:37;;;;;;;10.40;2.65;;;;;;;10.97;76.79;100009.97;10403199;28;20051;-64
2022/01/03 10:34:38;;;;;;;10.23;2.50;;;;;;;10.99;76.87;100009.84;10405917;28;20045;-64
2022/01/03 10:39:40;;;;;;;6.60;2.42;;;;;;;10.95;76.83;100002.13;10407280;28;20063;-64
2022/01/03 10:44:41;;;;;;;9.07;2.20;;;;;;;10.66;78.33;100007.28;10403901;28;20059;-63
2022/01/03 10:49:45;;;;;;;9.98;2.83;;;;;;;10.64;78.71;99993.25;10406752;28;20056;-63
2022/01/03 10:55:12;;;;;;;5.72;2.35;;;;;;;10.57;79.54;99994.78;10407815;28;20436;-62
2022/01/03 11:00:26;;;;;;;9.82;1.90;;;;;;;10.48;80.39;99969.78;10407485;28;20168;-64
2022/01/03 11:05:46;;;;;;;11.07;2.92;;;;;;;10.55;80.12;99994.91;10401085;28;20163;-64
2022/01/03 11:10:47;;;;;;;9.23;2.47;;;;;;;10.48;80.57;99977.75;10406099;28;20037;-64
2022/01/03 11:16:00;;;;;;;7.63;1.67;;;;;;;10.41;80.83;99976.59;10408734;28;20490;-64
2022/01/03 11:21:13;;;;;;;9.13;2.90;;;;;;;10.37;81.72;99969.81;10407568;28;20063;-64
2022/01/03 11:26:17;;;;;;;9.30;2.55;;;;;;;10.40;83.47;99969.56;10420138;28;20045;-65
2022/01/03 11:31:20;;;;;;;7.97;2.22;;;;;;;10.33;83.92;99963.94;10408906;28;20099;-64
2022/01/03 11:36:23;;;;;;;6.18;1.85;;;;;;;10.34;84.49;99962.09;10402494;28;20958;-64
2022/01/03 11:41:25;;;;;;;8.43;2.00;;;;;;;10.48;85.11;99945.81;10406320;28;20051;-64
2022/01/03 11:46:28;;;;;;;6.78;2.40;;;;;;;10.57;83.90;99933.56;10401808;28;20061;-64
2022/01/03 11:51:32;;;;;;;8.60;3.00;;;;;;;10.52;84.06;99915.28;10404733;28;20431;-64
2022/01/03 11:56:44;;;;;;;11.88;2.92;;;;;;;10.58;83.83;99914.78;10407272;28;20453;-66
2022/01/03 12:07:32;;;;;;;10.18;3.47;;;;;;;10.77;82.92;99903.38;10416765;28;20049;-64
2022/01/03 12:12:36;;;;;;;11.38;3.65;;;;;;;10.83;82.85;99882.53;10417252;28;20052;-65
2022/01/03 12:17:47;;;;;;;11.80;5.13;;;;;;;10.84;83.06;99890.38;10414025;28;20045;-65
2022/01/03 12:22:50;;;;;;;13.75;3.80;;;;;;;10.87;82.93;99871.47;10410345;28;20039;-66
2022/01/03 12:28:00;;;;;;;11.17;3.60;;;;;;;10.87;82.59;99871.47;10410739;28;20096;-65
2022/01/03 12:33:05;;;;;;;8.48;3.20;;;;;;;11.04;82.01;99877.13;10413293;28;20072;-64
2022/01/03 12:38:08;;;;;;;16.05;4.32;;;;;;;11.21;80.46;99870.31;10404378;28;20053;-64
2022/01/03 12:43:12;;;;;;;9.02;2.80;;;;;;;11.23;79.19;99866.53;10408881;28;20057;-64
2022/01/03 12:48:18;;;;;;;11.70;4.00;;;;;;;11.39;78.96;99849.16;10413235;28;20486;-64
2022/01/03 12:53:29;;;;;;;9.90;3.38;;;;;;;11.52;78.00;99839.06;10408062;28;20126;-64
2022/01/03 12:58:30;;;;;;;7.85;2.83;;;;;;;11.75;75.91;99844.13;10413893;28;20063;-65
2022/01/03 13:03:52;;;;;;;9.05;3.33;;;;;;;12.65;73.10;99825.94;10407145;28;20057;-64
2022/01/03 13:08:53;;;;;;;9.98;2.53;;;;;;;13.67;69.20;99816.88;10405367;28;20490;-64
2022/01/03 13:14:05;;;;;;;6.55;2.00;;;;;;;16.36;58.13;99805.50;10414366;28;20164;-64
2022/01/03 13:19:12;;;;;;;7.65;2.47;;;;;;;18.24;51.45;99799.09;10408647;28;20048;-66
2022/01/03 13:24:30;;;;;;;10.07;2.70;;;;;;;18.15;50.62;99800.19;10407525;28;20466;-65
2022/01/03 13:29:37;;;;;;;7.53;2.83;;;;;;;17.03;54.07;99784.59;10413619;28;20870;-65
2022/01/03 13:34:39;;;;;;;11.20;2.20;;;;;;;16.80;54.98;99785.34;10404962;28;20048;-65
2022/01/03 13:39:42;;;;;;;9.90;2.97;;;;;;;15.78;57.92;99774.34;10409530;28;20059;-64
2022/01/03 13:49:54;;;;;;;7.10;2.17;;;;;;;13.83;64.08;99773.38;10412153;28;20564;-64
2022/01/03 13:55:01;;;;;;;7.97;2.40;;;;;;;13.37;66.29;99768.16;10409022;28;20197;-65
2022/01/03 14:00:05;;;;;;;14.50;2.85;;;;;;;13.14;68.91;99750.88;10406777;28;20497;-64
2022/01/03 14:05:08;;;;;;;;;;;;;;;12.88;69.79;99741.78;10411684;28;20077;-64
2022/01/03 14:10:09;;;;;;;11.45;2.58;;;;;;;12.68;70.77;99735.69;10411225;28;19921;-65
2022/01/03 14:15:14;;;;;;;9.02;2.80;;;;;;;12.44;71.51;99736.25;10410050;28;20044;-67
2022/01/03 14:20:17;;;;;;;;;;;;;;;12.53;70.90;99738.03;10408824;28;20053;-64
2022/01/03 14:25:23;;;;;;;8.88;2.50;;;;;;;12.15;71.45;99725.72;10408026;28;19932;-64
2022/01/03 14:30:30;;;;;;;6.07;1.60;;;;;;;12.12;71.43;99718.03;10409428;28;20414;-64
2022/01/03 14:35:33;;;;;;;7.80;2.08;;;;;;;12.01;71.77;99717.22;10409133;28;20057;-63
2022/01/03 14:40:37;;;;;;;8.93;2.95;;;;;;;11.92;72.28;99707.38;10405451;28;20052;-64
2022/01/03 14:45:40;;;;;;;5.35;1.50;;;;;;;11.63;73.25;99697.66;10405910;28;20053;-64
2022/01/03 14:50:42;;;;;;;9.40;2.20;;;;;;;11.50;74.40;99691.78;10408100;28;20159;-64
2022/01/03 14:55:44;;;;;;;5.32;1.90;;;;;;;11.51;75.65;99680.13;10396983;28;20075;-63
2022/01/03 15:00:47;;;;;;;6.03;1.92;;;;;;;11.45;76.53;99696.69;10410617;28;20045;-64
2022/01/03 15:05:50;;;;;;;6.40;1.92;;;;;;;11.30;77.15;99678.50;10406143;28;20051;-65
2022/01/03 15:10:51;;;;;;;9.13;2.53;;;;;;;11.42;77.23;99678.31;10404164;28;20152;-66
2022/01/03 15:15:56;;;;;;;12.88;3.70;;;;;;;11.31;77.29;99672.16;10415887;28;20079;-65
2022/01/03 15:20:58;;;;;;;8.32;2.65;;;;;;;11.16;77.33;99668.25;10413343;28;20140;-65
2022/01/03 15:26:00;;;;;;;8.88;2.50;;;;;;;11.16;77.49;99665.59;10406016;28;20087;-66
2022/01/03 15:31:03;;;;;;;4.63;1.65;;;;;;;11.15;77.35;99650.59;10404498;28;20068;-65
2022/01/03 15:36:04;;;;;;;6.60;2.05;;;;;;;11.12;76.43;99650.88;10424987;28;20122;-64
2022/01/03 15:41:05;;;;;;;6.45;1.92;;;;;;;11.13;75.65;99641.91;10391163;28;20814;-64
2022/01/03 15:46:07;;;;;;;8.60;2.42;;;;;;;11.07;75.77;99645.13;10424518;28;20041;-65
2022/01/03 15:51:08;;;;;;;5.90;1.83;;;;;;;11.09;75.23;99640.50;10416503;28;20053;-64
2022/01/03 15:56:10;;;;;;;7.82;1.88;;;;;;;11.16;75.72;99641.63;10419453;28;20071;-65
2022/01/03 16:01:11;;;;;;;8.93;2.72;;;;;;;11.11;75.89;99625.25;10418203;28;20059;-66
2022/01/03 16:06:13;;;;;;;8.98;2.42;;;;;;;11.15;75.83;99634.59;10415931;28;20064;-64
2022/01/03 16:11:15;;;;;;;7.20;2.55;;;;;;;11.16;75.66;99625.63;10412532;28;20040;-66
2022/01/03 16:16:29;;;;;;;4.63;1.98;;;;;;;11.07;75.53;99616.69;10421022;28;20059;-64
2022/01/03 16:21:30;;;;;;;7.85;1.98;;;;;;;11.02;74.76;99596.78;10414942;28;20191;-64
2022/01/03 16:26:32;;;;;;;3.35;1.15;;;;;;;10.97;73.97;99605.19;10417771;28;20052;-64
2022/01/03 16:31:33;;;;;;;4.18;1.27;;;;;;;11.00;73.12;99594.25;10419637;28;20135;-66
2022/01/03 16:36:35;;;;;;;6.00;1.17;;;;;;;11.00;73.02;99583.59;10413421;28;20064;-64
2022/01/03 16:41:37;;;;;;;5.03;1.00;;;;;;;11.02;72.93;99575.47;10416199;28;20045;-65
2022/01/03 16:46:39;;;;;;;4.70;2.83;;;;;;;10.99;72.80;99573.09;10415140;28;20427;-67
2022/01/03 16:51:41;;;;;;;5.53;1.25;;;;;;;11.02;72.83;99564.81;10413588;28;20060;-64
2022/01/03 16:56:43;;;;;;;5.03;1.65;;;;;;;10.98;73.12;99558.13;10417152;28;20045;-64
2022/01/03 17:01:44;;;;;;;7.40;1.27;;;;;;;10.94;73.64;99560.22;10412395;28;20051;-64
2022/01/03 17:06:46;;;;;;;8.25;1.60;;;;;;;10.93;73.92;99562.03;10411420;28;20144;-65
2022/01/03 17:11:48;;;;;;;6.68;1.50;;;;;;;10.95;74.22;99544.09;10414199;28;20826;-65
2022/01/03 17:16:49;;;;;;;4.13;1.35;;;;;;;11.01;74.53;99539.19;10414982;28;20045;-65
2022/01/03 17:21:51;;;;;;;9.02;2.08;;;;;;;11.05;74.70;99541.41;10415009;28;20053;-66
2022/01/03 17:26:52;;;;;;;5.68;2.17;;;;;;;11.04;74.83;99525.59;10410216;28;20624;-64
2022/01/03 17:32:07;;;;;;;10.00;2.53;;;;;;;10.92;75.38;99512.41;10416425;28;20071;-64
2022/01/03 17:37:11;;;;;;;6.40;2.67;;;;;;;10.88;75.93;99511.03;10413652;28;20306;-64
2022/01/03 17:42:12;;;;;;;6.60;1.73;;;;;;;10.90;76.19;99503.75;10410978;28;20132;-64
2022/01/03 17:47:16;;;;;;;5.82;1.90;;;;;;;10.83;76.15;99489.31;10401226;28;20527;-66
2022/01/03 17:52:17;;;;;;;8.60;2.40;;;;;;;10.75;75.85;99484.72;10408444;28;20094;-65
2022/01/03 17:57:19;;;;;;;6.90;2.05;;;;;;;10.75;75.52;99499.88;10415515;28;20049;-65
2022/01/03 18:02:20;;;;;;;4.88;1.23;;;;;;;10.79;74.95;99503.91;10413812;28;20059;-64
2022/01/03 18:07:22;;;;;;;4.03;1.48;;;;;;;10.85;75.19;99489.19;10411991;28;20063;-65
2022/01/03 18:12:24;;;;;;;4.88;1.55;;;;;;;10.82;74.93;99495.63;10408072;28;20049;-65
2022/01/03 18:17:25;;;;;;;3.60;1.13;;;;;;;10.79;75.44;99491.44;10411201;28;20047;-65
2022/01/03 18:22:26;;;;;;;4.97;1.52;;;;;;;10.74;75.94;99476.88;10408529;28;20056;-65
2022/01/03 18:27:28;;;;;;;3.72;1.25;;;;;;;10.73;76.20;99459.22;10414561;28;20130;-65
2022/01/03 18:32:29;;;;;;;4.45;1.33;;;;;;;10.72;77.05;99466.38;10412996;28;20071;-64
2022/01/03 18:37:30;;;;;;;8.93;2.15;;;;;;;10.74;77.33;99460.91;10412319;28;20145;-66
2022/01/03 18:42:32;;;;;;;3.75;1.60;;;;;;;10.73;77.56;99459.22;10410841;28;20052;-64
2022/01/03 18:47:33;;;;;;;5.88;1.38;;;;;;;10.68;77.87;99451.69;10408746;28;20051;-65
2022/01/03 18:52:37;;;;;;;6.90;1.63;;;;;;;10.76;77.92;99459.78;10413058;28;20210;-64
2022/01/03 18:57:38;;;;;;;6.93;1.53;;;;;;;10.80;77.91;99449.69;10413239;28;20179;-65
2022/01/03 19:02:41;;;;;;;6.28;1.58;;;;;;;10.90;77.88;99445.16;10413961;28;20183;-65
2022/01/03 19:07:43;;;;;;;5.72;1.75;;;;;;;10.90;78.37;99434.53;10411845;28;20124;-66
2022/01/03 19:12:45;;;;;;;7.10;1.70;;;;;;;10.88;78.71;99441.78;10409419;28;20116;-66
2022/01/03 19:17:47;;;;;;;6.93;1.85;;;;;;;10.81;79.50;99430.06;10407648;28;20522;-66
2022/01/03 19:22:48;;;;;;;4.13;1.35;;;;;;;10.75;79.99;99431.50;10410209;28;20099;-65
2022/01/03 19:27:50;;;;;;;3.35;1.38;;;;;;;10.73;80.90;99428.13;10413073;28;20040;-66
2022/01/03 19:37:57;;;;;;;5.35;1.48;;;;;;;10.69;83.26;99420.56;10414378;28;20491;-66
2022/01/03 19:43:00;;;;;;;9.13;3.00;;;;;;;10.59;84.96;99417.94;10408098;28;20045;-67
2022/01/03 19:48:02;;;;;;;8.98;3.25;;;;;;;10.64;85.28;99406.88;10408330;28;20044;-65
2022/01/03 19:53:03;;;;;;;5.97;2.17;;;;;;;10.63;85.84;99398.06;10410212;28;20442;-64
2022/01/03 19:58:05;;;;;;;7.40;1.90;;;;;;;10.63;85.29;99389.22;10409280;28;20098;-65
2022/01/03 20:03:07;;;;;;;5.45;4.13;;;;;;;10.60;86.63;99385.88;10412983;28;20048;-65
2022/01/03 20:08:13;;;;;;;9.80;3.45;;;;;;;10.51;87.56;99381.41;10412953;28;20096;-64
2022/01/03 20:13:15;;;;;;;7.18;3.63;;;;;;;10.38;88.32;99373.72;10405037;28;20530;-66
2022/01/03 20:18:16;;;;;;;5.55;1.92;;;;;;;10.34;88.67;99361.69;10412502;28;20128;-65
2022/01/03 20:23:18;;;;;;;2.80;1.60;;;;;;;10.36;89.10;99369.56;10416591;28;20512;-65
2022/01/03 20:28:20;;;;;;;8.60;2.00;;;;;;;10.45;88.70;99366.03;10418228;28;20073;-64
2022/01/03 20:33:21;;;;;;;4.18;1.60;;;;;;;10.35;89.79;99354.56;10419696;28;20056;-65
2022/01/03 20:38:23;;;;;;;4.55;1.70;;;;;;;10.36;90.31;99350.94;10413222;28;20127;-66
2022/01/03 20:43:25;;;;;;;6.47;2.58;;;;;;;10.36;90.46;99340.28;10418461;28;20514;-66
2022/01/03 20:48:27;;;;;;;6.50;2.40;;;;;;;10.37;90.30;99342.81;10417248;28;20566;-66
2022/01/03 20:53:29;;;;;;;8.45;2.85;;;;;;;10.17;91.43;99314.56;10412797;28;20099;-65
2022/01/03 20:58:30;;;;;;;5.82;2.03;;;;;;;10.32;91.22;99314.94;10411346;28;20143;-66
2022/01/03 21:03:31;;;;;;;5.57;2.15;;;;;;;10.41;91.63;99314.09;10412704;28;20057;-64
2022/01/03 21:08:37;;;;;;;6.38;2.15;;;;;;;10.33;91.10;99303.28;10414532;28;21120;-66
2022/01/03 21:13:39;;;;;;;8.50;2.80;;;;;;;10.36;91.43;99306.53;10414910;28;20156;-67
2022/01/03 21:18:44;;;;;;;9.75;2.40;;;;;;;10.27;91.52;99288.75;10419867;28;20056;-67
2022/01/03 21:23:45;;;;;;;5.93;1.45;;;;;;;10.31;91.62;99281.31;10411620;28;20049;-66
2022/01/03 21:28:47;;;;;;;7.88;2.10;;;;;;;10.44;91.34;99268.56;10410810;28;20594;-68
2022/01/03 21:33:48;;;;;;;5.35;2.35;;;;;;;10.43;91.12;99257.09;10410176;28;20787;-69
2022/01/03 21:38:50;;;;;;;5.00;2.03;;;;;;;10.41;90.70;99252.91;10407975;28;20073;-66
2022/01/03 21:43:51;;;;;;;5.07;2.40;;;;;;;10.48;90.99;99254.00;10409964;28;20053;-67
2022/01/03 21:48:53;;;;;;;7.03;2.25;;;;;;;10.42;90.70;99243.94;10410342;28;20465;-67
2022/01/03 21:53:54;;;;;;;3.22;1.60;;;;;;;10.31;91.40;99230.78;10410625;28;20198;-66
2022/01/03 21:58:56;;;;;;;3.53;1.98;;;;;;;10.41;91.18;99231.63;10412329;28;20041;-66
2022/01/03 22:03:57;;;;;;;7.10;2.08;;;;;;;10.33;91.39;99223.47;10430200;28;20598;-65
2022/01/03 22:08:59;;;;;;;4.68;1.85;;;;;;;10.22;91.94;99206.75;10426012;28;20048;-68
2022/01/03 22:14:00;;;;;;;6.47;1.75;;;;;;;10.19;92.75;99207.06;10412870;28;20040;-67
2022/01/03 22:19:02;;;;;;;5.95;2.70;;;;;;;10.22;92.94;99197.91;10433539;28;20471;-67
2022/01/03 22:24:03;;;;;;;4.70;2.05;;;;;;;10.26;93.15;99188.66;10419739;28;20657;-68
2022/01/03 22:29:05;;;;;;;4.68;1.75;;;;;;;10.33;92.81;99181.81;10427977;28;20447;-66
2022/01/03 22:34:06;;;;;;;5.47;2.15;;;;;;;10.37;92.89;99174.38;10424637;28;20336;-67
2022/01/03 22:39:08;;;;;;;5.07;2.55;;;;;;;10.27;93.21;99161.09;10430675;28;20103;-66
2022/01/03 22:44:10;;;;;;;4.22;1.55;;;;;;;10.20;94.09;99160.84;10429152;28;20627;-66
2022/01/03 22:49:11;;;;;;;5.45;1.92;;;;;;;10.21;94.76;99149.22;10423641;28;20048;-68
2022/01/03 22:54:13;;;;;;;4.63;2.40;;;;;;;10.38;94.26;99141.47;10429592;28;20069;-66
2022/01/03 22:59:16;;;;;;;3.92;2.13;;;;;;;10.37;94.13;99129.13;10419143;28;20185;-66
2022/01/03 23:04:18;;;;;;;5.17;2.33;;;;;;;10.30;94.64;99117.38;10416235;28;20235;-66
2022/01/03 23:09:19;;;;;;;6.45;1.95;;;;;;;10.26;95.44;99091.09;10422043;28;20148;-66
2022/01/03 23:14:21;;;;;;;3.88;2.10;;;;;;;10.24;95.57;99097.56;10429140;28;20132;-65
2022/01/03 23:19:22;;;;;;;3.92;2.60;;;;;;;10.15;96.34;99093.97;10436330;28;20056;-67
2022/01/03 23:24:24;;;;;;;4.97;3.05;;;;;;;10.07;96.38;99064.63;10419644;28;20053;-68
2022/01/03 23:29:25;;;;;;;4.88;2.80;;;;;;;10.07;97.15;99064.63;10419937;28;20134;-67
2022/01/03 23:34:26;;;;;;;7.47;3.25;;;;;;;9.99;97.75;99040.63;10433069;28;20462;-67
2022/01/03 23:39:28;;;;;;;6.85;3.00;;;;;;;10.03;97.43;99026.88;10421448;28;20128;-66
2022/01/03 23:44:33;;;;;;;4.78;2.83;;;;;;;10.15;96.86;99024.84;10425012;28;20049;-65
2022/01/03 23:49:34;;;;;;;5.87;3.67;;;;;;;10.21;96.60;98997.63;10428320;28;20127;-67